Time;durP1;ratioP1;P1;durP2;ratioP2;P2;SDS_P1;SDS_P2;PMS_P1;PMS_P2;Temp;Humidity;BMP_temperature;BMP_pressure;BME280_temperature;BME280_humidity;BME280_pressure;Samples;Min_cycle;Max_cycle;Signal;HPM_P1;HPM_P2
2022/11/04 00:01:16;;;;;;;28.50;19.90;;;3.90;99.90;3.10;100019;;;;579366;244;24073;-81
2022/11/04 00:03:44;;;;;;;33.97;18.97;;;3.90;99.90;3.10;100010;;;;589981;242;24130;-81
2022/11/04 00:06:12;;;;;;;34.97;21.50;;;3.90;99.90;3.10;100010;;;;580378;244;24219;-81
2022/11/04 00:08:40;;;;;;;31.87;18.87;;;3.90;99.90;3.10;100012;;;;589218;243;24100;-81
2022/11/04 00:13:55;;;;;;;33.27;20.10;;;3.90;99.90;3.10;100002;;;;579923;244;24090;-81
2022/11/04 00:19:09;;;;;;;32.77;19.80;;;4.00;99.90;3.10;100001;;;;580291;244;24111;-81
2022/11/04 00:29:45;;;;;;;29.97;16.83;;;4.00;99.90;3.20;99998;;;;580224;244;24043;-80
2022/11/04 00:34:57;;;;;;;32.33;15.27;;;4.00;99.90;3.20;100006;;;;579597;244;24078;-80
2022/11/04 00:37:25;;;;;;;20.13;13.80;;;4.10;99.90;3.20;99995;;;;588066;244;24063;-81
2022/11/04 00:39:55;;;;;;;31.10;15.47;;;4.10;99.90;3.20;99995;;;;588381;244;24078;-80
2022/11/04 00:42:26;;;;;;;22.83;14.43;;;4.10;99.90;3.20;99985;;;;579079;244;24117;-81
2022/11/04 00:44:51;;;;;;;26.93;14.50;;;4.10;99.90;3.20;99986;;;;579151;244;24095;-81
2022/11/04 00:47:20;;;;;;;23.13;14.90;;;4.00;99.90;3.20;99988;;;;588059;244;24114;-81
2022/11/04 00:49:48;;;;;;;21.65;10.98;;;4.00;99.90;3.20;99984;;;;583080;244;35185;-81
2022/11/04 00:52:16;;;;;;;11.53;8.17;;;4.00;99.90;3.20;99985;;;;579234;244;24063;-80
2022/11/04 00:54:45;;;;;;;11.93;7.80;;;4.10;99.90;3.20;99978;;;;588122;244;24101;-81
2022/11/04 00:57:16;;;;;;;21.43;8.73;;;4.10;99.90;3.20;99975;;;;588341;244;24057;-81
2022/11/04 00:59:44;;;;;;;16.57;11.53;;;4.10;99.90;3.30;99980;;;;579178;244;24095;-81
2022/11/04 01:02:12;;;;;;;24.03;12.13;;;4.10;99.90;3.30;99965;;;;575055;244;24094;-81
2022/11/04 01:04:37;;;;;;;30.60;13.77;;;4.20;99.90;3.40;99971;;;;578671;244;24068;-81
2022/11/04 01:07:05;;;;;;;24.20;13.80;;;4.20;99.90;3.40;99952;;;;578981;244;24067;-82
2022/11/04 01:09:33;;;;;;;25.03;13.60;;;4.30;99.90;3.50;99952;;;;579443;244;24065;-81
2022/11/04 01:12:01;;;;;;;20.10;12.40;;;4.30;99.90;3.50;99950;;;;579538;244;24070;-81
2022/11/04 01:14:32;;;;;;;20.83;12.53;;;4.40;99.90;3.50;99945;;;;589753;242;25135;-82
2022/11/04 01:17:00;;;;;;;22.67;13.10;;;4.40;99.90;3.60;99947;;;;580832;244;24052;-81
2022/11/04 01:19:28;;;;;;;25.33;13.37;;;4.40;99.90;3.70;99935;;;;589393;243;24054;-81
2022/11/04 01:21:58;;;;;;;22.03;13.13;;;4.50;99.90;3.70;99933;;;;580303;244;24058;-81
2022/11/04 01:24:26;;;;;;;26.73;12.90;;;4.50;99.90;3.80;99932;;;;588759;243;24054;-80
2022/11/04 01:26:54;;;;;;;16.77;8.73;;;4.60;99.90;3.90;99932;;;;588834;243;24079;-81
2022/11/04 01:29:22;;;;;;;9.73;7.57;;;4.70;99.90;4.00;99927;;;;588640;243;24103;-81
2022/11/04 01:31:53;;;;;;;13.80;7.60;;;4.80;99.90;4.10;99922;;;;588470;243;24075;-80
2022/11/04 01:34:17;;;;;;;10.47;5.80;;;4.90;99.90;4.20;99919;;;;578968;244;24138;-80
2022/11/04 01:36:45;;;;;;;14.43;5.43;;;5.00;99.90;4.20;99915;;;;579613;244;24055;-80
2022/11/04 01:39:13;;;;;;;17.03;7.97;;;5.00;99.90;4.30;99916;;;;588480;243;24056;-80
2022/11/04 01:41:44;;;;;;;12.37;5.53;;;5.10;99.90;4.30;99908;;;;588571;243;24114;-80
2022/11/04 01:44:46;;;;;;;11.83;6.13;;;5.10;99.90;4.30;99906;;;;579292;244;24083;-80
2022/11/04 01:47:47;;;;;;;18.73;8.20;;;5.20;99.90;4.40;99901;;;;579737;243;24071;-80
2022/11/04 01:50:19;;;;;;;14.47;6.83;;;5.20;99.90;4.30;99907;;;;579680;244;24082;-80
2022/11/04 01:53:05;;;;;;;12.70;6.30;;;5.20;99.90;4.40;99911;;;;578146;244;24140;-82
2022/11/04 01:55:37;;;;;;;12.93;5.40;;;5.20;99.90;4.40;99896;;;;579287;244;24095;-81
2022/11/04 01:58:01;;;;;;;24.93;7.73;;;5.20;99.90;4.40;99888;;;;562534;249;24151;-80
2022/11/04 02:00:34;;;;;;;16.83;7.07;;;5.10;99.90;4.30;99890;;;;579325;244;24064;-80
2022/11/04 02:03:09;;;;;;;13.87;6.73;;;5.10;99.90;4.30;99877;;;;578677;244;24064;-80
2022/11/04 02:05:41;;;;;;;11.83;6.77;;;5.10;99.90;4.20;99881;;;;579055;244;24044;-81
2022/11/04 02:08:05;;;;;;;10.77;7.17;;;5.10;99.90;4.20;99868;;;;578322;244;25103;-81
2022/11/04 02:10:34;;;;;;;11.40;5.87;;;5.00;99.90;4.20;99876;;;;581933;244;24090;-81
2022/11/04 02:13:01;;;;;;;12.93;5.63;;;5.00;99.90;4.10;99863;;;;587802;244;24133;-80
2022/11/04 02:15:33;;;;;;;28.20;7.33;;;5.00;99.90;4.10;99868;;;;578715;244;24046;-80
2022/11/04 02:18:04;;;;;;;11.67;6.90;;;4.90;99.90;4.10;99845;;;;578794;244;24122;-80
2022/11/04 02:20:34;;;;;;;18.30;7.83;;;4.90;99.90;4.10;99845;;;;578901;244;24086;-80
2022/11/04 02:23:26;;;;;;;16.97;8.07;;;4.90;99.90;4.00;99845;;;;579159;244;24115;-81
2022/11/04 02:26:16;;;;;;;11.83;6.07;;;4.90;99.90;4.00;99839;;;;580319;243;24134;-80
2022/11/04 02:29:20;;;;;;;10.50;6.63;;;4.90;99.90;4.10;99828;;;;581915;244;24134;-79
2022/11/04 02:31:54;;;;;;;11.00;6.43;;;4.90;99.90;4.10;99826;;;;567408;248;24084;-80
2022/11/04 02:34:42;;;;;;;14.77;7.50;;;5.00;99.90;4.20;99820;;;;578326;244;24082;-79
2022/11/04 02:37:31;;;;;;;14.73;5.43;;;5.00;99.90;4.30;99822;;;;580386;244;24081;-80
2022/11/04 02:40:08;;;;;;;16.23;6.57;;;5.10;99.90;4.40;99818;;;;567111;249;24112;-80
2022/11/04 02:42:41;;;;;;;12.00;7.13;;;5.20;99.90;4.50;99823;;;;580669;244;24024;-81
2022/11/04 02:45:24;;;;;;;9.77;6.13;;;5.30;99.90;4.50;99825;;;;589464;244;24067;-80
2022/11/04 02:47:52;;;;;;;15.10;6.20;;;5.40;99.90;4.60;99817;;;;580698;244;24070;-80
2022/11/04 02:50:20;;;;;;;11.30;5.43;;;5.50;99.90;4.70;99806;;;;580359;244;24155;-79
2022/11/04 02:52:54;;;;;;;6.13;5.10;;;5.50;99.90;4.70;99813;;;;578753;244;24067;-79
2022/11/04 02:55:40;;;;;;;15.70;6.00;;;5.50;99.90;4.70;99813;;;;566643;249;24100;-80
2022/11/04 02:58:20;;;;;;;9.80;5.63;;;5.60;99.90;4.80;99808;;;;567151;249;24098;-81
2022/11/04 03:00:48;;;;;;;15.07;5.70;;;5.60;99.90;4.80;99806;;;;567197;249;24098;-80
2022/11/04 03:03:23;;;;;;;14.03;6.67;;;5.70;99.90;4.90;99812;;;;566877;248;24092;-80
2022/11/04 03:05:51;;;;;;;13.37;5.90;;;5.70;99.90;4.90;99793;;;;569467;249;24104;-80
2022/11/04 03:08:35;;;;;;;13.93;5.50;;;5.70;99.90;4.90;99801;;;;579873;244;24060;-80
2022/11/04 03:11:11;;;;;;;9.13;5.30;;;5.80;99.90;4.90;99789;;;;579961;244;24078;-81
2022/11/04 03:13:45;;;;;;;10.40;5.77;;;5.80;99.90;5.00;99796;;;;579352;244;24081;-80
2022/11/04 03:16:15;;;;;;;11.60;5.13;;;5.80;99.90;5.00;99794;;;;579752;244;24116;-79
2022/11/04 03:19:19;;;;;;;10.77;6.00;;;5.80;99.90;5.00;99794;;;;579751;244;24084;-81
2022/11/04 03:21:53;;;;;;;9.97;5.80;;;5.80;99.90;5.00;99796;;;;579855;244;24126;-80
2022/11/04 03:24:24;;;;;;;10.20;5.30;;;5.80;99.90;5.10;99790;;;;557148;254;24122;-81
2022/11/04 03:26:56;;;;;;;11.43;5.60;;;5.90;99.90;5.10;99788;;;;575983;244;24136;-80
2022/11/04 03:29:36;;;;;;;6.47;5.17;;;5.90;99.90;5.10;99785;;;;566689;249;24092;-81
2022/11/04 03:32:10;;;;;;;13.70;5.57;;;5.90;99.90;5.10;99782;;;;588305;243;24092;-79
2022/11/04 03:34:40;;;;;;;9.53;4.40;;;5.90;99.90;5.10;99778;;;;579401;244;24081;-80
2022/11/04 03:37:10;;;;;;;11.20;4.97;;;5.90;99.90;5.10;99771;;;;579849;243;24089;-80
2022/11/04 03:39:36;;;;;;;10.03;5.37;;;5.90;99.90;5.10;99771;;;;580177;244;24089;-80
2022/11/04 03:42:18;;;;;;;14.53;6.03;;;5.90;99.90;5.10;99764;;;;579841;244;24089;-80
2022/11/04 03:44:31;;;;;;;10.20;5.00;;;5.90;99.90;5.10;99767;;;;579564;244;24106;-82
2022/11/04 03:47:00;;;;;;;8.60;6.00;;;5.90;99.90;5.10;99764;;;;580991;244;24055;-79
2022/11/04 03:49:31;;;;;;;10.77;5.37;;;5.90;99.90;5.10;99756;;;;589735;243;24050;-79
2022/11/04 03:52:00;;;;;;;8.43;4.90;;;5.90;99.90;5.10;99748;;;;580835;244;24123;-79
2022/11/04 03:54:25;;;;;;;11.87;5.40;;;6.00;99.90;5.20;99748;;;;580784;244;24138;-79
2022/11/04 03:57:23;;;;;;;8.97;5.20;;;6.00;99.90;5.20;99751;;;;580867;244;24076;-77
2022/11/04 04:00:08;;;;;;;7.27;5.50;;;6.00;99.90;5.30;99751;;;;580850;244;24070;-80
2022/11/04 04:02:56;;;;;;;12.97;5.10;;;6.10;99.90;5.30;99747;;;;567311;249;24114;-80
2022/11/04 04:05:32;;;;;;;9.50;4.53;;;6.20;99.90;5.30;99743;;;;580675;244;24109;-80
2022/11/04 04:08:30;;;;;;;17.90;5.17;;;6.20;99.90;5.30;99740;;;;580126;244;24134;-80
2022/11/04 04:11:20;;;;;;;12.80;5.27;;;6.20;99.90;5.30;99741;;;;579001;244;24089;-79
2022/11/04 04:13:49;;;;;;;7.93;4.90;;;6.20;99.90;5.30;99741;;;;579249;244;24069;-80
2022/11/04 04:16:34;;;;;;;9.17;5.07;;;6.20;99.90;5.30;99741;;;;579435;244;24117;-80
2022/11/04 04:19:14;;;;;;;11.90;5.50;;;6.20;99.90;5.40;99730;;;;565349;248;24098;-80
2022/11/04 04:21:48;;;;;;;7.77;4.47;;;6.20;99.90;5.40;99730;;;;576798;244;24088;-80
2022/11/04 04:29:48;;;;;;;6.90;5.10;;;6.30;99.90;5.40;99727;;;;582931;244;24138;-81
2022/11/04 04:32:16;;;;;;;10.77;4.63;;;6.30;99.90;5.50;99727;;;;579527;244;24094;-81
2022/11/04 04:34:44;;;;;;;9.40;4.70;;;6.30;99.90;5.50;99741;;;;579459;244;24059;-81
2022/11/04 04:37:15;;;;;;;18.13;5.43;;;6.40;99.90;5.60;99723;;;;567180;249;24081;-82
2022/11/04 04:45:31;;;;;;;9.03;5.67;;;6.50;99.90;5.70;99728;;;;569303;250;24103;-80
2022/11/04 04:47:59;;;;;;;10.67;4.87;;;6.50;99.90;5.70;99731;;;;553251;250;24130;-81
2022/11/04 04:50:36;;;;;;;14.47;4.80;;;6.50;99.90;5.80;99731;;;;576881;243;24065;-81
2022/11/04 04:53:04;;;;;;;9.77;5.10;;;6.60;99.90;5.80;99725;;;;581529;244;24071;-81
2022/11/04 04:55:31;;;;;;;9.40;4.70;;;6.70;99.90;5.80;99726;;;;568529;249;25238;-81
2022/11/04 04:58:01;;;;;;;9.47;4.33;;;6.70;99.90;5.90;99733;;;;581329;244;24084;-81
2022/11/04 05:00:33;;;;;;;12.20;4.90;;;6.70;99.90;5.90;99728;;;;590069;244;24156;-80
2022/11/04 05:02:59;;;;;;;6.80;4.80;;;6.70;99.90;5.90;99734;;;;580643;244;24123;-81
2022/11/04 05:05:27;;;;;;;8.10;5.30;;;6.80;99.90;5.90;99727;;;;589598;243;24069;-81
2022/11/04 05:07:55;;;;;;;7.70;4.57;;;6.80;99.90;6.00;99731;;;;589257;243;24123;-81
2022/11/04 05:10:23;;;;;;;11.37;5.50;;;6.80;99.90;6.00;99721;;;;589217;243;24138;-81
2022/11/04 05:15:36;;;;;;;9.70;5.27;;;6.90;99.90;6.10;99719;;;;580080;244;24095;-81
2022/11/04 05:18:04;;;;;;;10.87;5.73;;;6.90;99.90;6.10;99724;;;;579871;244;24090;-82
2022/11/04 05:20:33;;;;;;;6.23;4.93;;;6.90;99.90;6.10;99717;;;;589480;243;24082;-81
2022/11/04 05:23:01;;;;;;;10.97;5.87;;;7.00;99.90;6.10;99715;;;;588679;243;24064;-80
2022/11/04 05:25:32;;;;;;;12.50;6.03;;;7.00;99.90;6.10;99709;;;;588077;243;24070;-81
2022/11/04 05:27:59;;;;;;;5.77;3.40;;;7.00;99.90;6.20;99717;;;;578916;244;24127;-81
2022/11/04 05:30:27;;;;;;;12.33;5.60;;;7.00;99.90;6.20;99707;;;;587957;244;24105;-81
2022/11/04 05:32:55;;;;;;;12.00;6.23;;;7.00;99.90;6.20;99705;;;;579327;244;24047;-81
2022/11/04 05:35:26;;;;;;;14.83;5.80;;;7.10;99.90;6.20;99711;;;;588273;244;24135;-81
2022/11/04 05:37:51;;;;;;;8.47;4.43;;;7.10;99.90;6.30;99704;;;;579640;244;24144;-81
2022/11/04 05:40:19;;;;;;;9.50;5.07;;;7.10;99.90;6.30;99710;;;;588765;244;24060;-81
2022/11/04 05:42:46;;;;;;;8.57;4.70;;;7.10;99.90;6.30;99703;;;;588654;244;24096;-82
2022/11/04 05:45:18;;;;;;;11.57;5.13;;;7.10;99.90;6.20;99705;;;;579661;244;24047;-82
2022/11/04 05:47:43;;;;;;;11.50;5.47;;;7.10;99.90;6.30;99706;;;;579373;244;24059;-82
2022/11/04 05:50:11;;;;;;;10.53;5.30;;;7.10;99.90;6.30;99702;;;;588845;244;24072;-82
2022/11/04 05:52:43;;;;;;;8.13;4.00;;;7.10;99.90;6.30;99697;;;;588549;244;24057;-81
2022/11/04 05:55:07;;;;;;;9.90;5.10;;;7.10;99.90;6.30;99693;;;;579887;244;24110;-82
2022/11/04 05:57:37;;;;;;;9.57;5.13;;;7.10;99.90;6.30;99691;;;;577604;244;24070;-81
2022/11/04 06:00:06;;;;;;;13.53;5.07;;;7.10;99.90;6.30;99702;;;;588986;242;24103;-81
2022/11/04 06:02:32;;;;;;;6.97;4.70;;;7.10;99.90;6.30;99696;;;;580672;244;24145;-81
2022/11/04 06:05:00;;;;;;;9.73;4.47;;;7.10;99.90;6.30;99698;;;;589442;243;24062;-81
2022/11/04 06:07:28;;;;;;;11.50;5.27;;;7.10;99.90;6.30;99686;;;;589278;243;24111;-81
2022/11/04 06:09:56;;;;;;;10.83;5.87;;;7.10;99.90;6.20;99693;;;;589213;243;24058;-80
2022/11/04 06:12:24;;;;;;;12.00;6.90;;;7.10;99.90;6.30;99693;;;;588951;243;24076;-81
2022/11/04 06:14:52;;;;;;;8.87;4.50;;;7.10;99.90;6.30;99691;;;;588707;244;24032;-80
2022/11/04 06:17:23;;;;;;;11.27;6.13;;;7.10;99.90;6.30;99684;;;;588917;243;24071;-80
2022/11/04 06:19:50;;;;;;;9.57;5.70;;;7.10;99.90;6.30;99691;;;;579049;244;24073;-81
2022/11/04 06:22:21;;;;;;;11.93;7.17;;;7.10;99.90;6.40;99688;;;;579111;244;24201;-81
2022/11/04 06:24:46;;;;;;;9.67;5.37;;;7.20;99.90;6.30;99686;;;;578816;244;24067;-82
2022/11/04 06:27:14;;;;;;;13.47;6.73;;;7.20;99.90;6.40;99680;;;;588091;243;25094;-81
2022/11/04 06:29:42;;;;;;;16.25;9.70;;;7.20;99.90;6.40;99680;;;;582914;243;46115;-81
2022/11/04 06:32:10;;;;;;;13.60;7.10;;;7.20;99.90;6.50;99687;;;;579381;244;24146;-80
2022/11/04 06:34:42;;;;;;;21.50;7.67;;;7.30;99.90;6.60;99684;;;;579586;244;24129;-81
2022/11/04 06:37:06;;;;;;;11.57;7.07;;;7.30;99.90;6.60;99684;;;;578584;244;24068;-80
2022/11/04 06:39:34;;;;;;;7.30;5.73;;;7.40;99.90;6.60;99680;;;;579455;244;24107;-81
2022/11/04 06:42:05;;;;;;;7.30;5.13;;;7.50;99.90;6.70;99681;;;;588333;244;24057;-82
2022/11/04 06:44:33;;;;;;;11.93;6.17;;;7.50;99.90;6.80;99682;;;;566149;248;25146;-81
2022/11/04 06:46:59;;;;;;;13.13;5.73;;;7.60;99.90;6.80;99683;;;;579306;244;24126;-81
2022/11/04 06:49:27;;;;;;;8.37;5.50;;;7.60;99.90;6.80;99677;;;;588622;244;24065;-81
2022/11/04 06:51:55;;;;;;;9.37;5.30;;;7.60;99.90;6.90;99690;;;;588666;244;24081;-80
2022/11/04 06:54:23;;;;;;;16.37;10.33;;;7.70;99.90;6.90;99693;;;;588604;244;24092;-80
2022/11/04 06:56:52;;;;;;;18.97;12.77;;;7.70;99.90;6.90;99692;;;;588538;244;24056;-81
2022/11/04 06:59:20;;;;;;;20.57;12.00;;;7.70;99.90;6.90;99692;;;;588349;244;24068;-81
2022/11/04 07:01:48;;;;;;;19.07;11.50;;;7.70;99.90;6.90;99696;;;;579766;244;24177;-81
2022/11/04 07:04:16;;;;;;;12.13;8.47;;;7.70;99.90;7.00;99702;;;;579369;244;24156;-80
2022/11/04 07:06:45;;;;;;;13.33;8.40;;;7.80;99.90;7.10;99696;;;;588191;244;24049;-80
2022/11/04 07:09:13;;;;;;;11.50;6.53;;;7.90;99.90;7.20;99699;;;;588106;244;24074;-79
2022/11/04 07:11:41;;;;;;;12.83;6.13;;;7.90;99.90;7.20;99702;;;;582442;243;24075;-80
2022/11/04 07:14:09;;;;;;;12.00;6.33;;;8.00;99.90;7.30;99697;;;;580247;244;24098;-81
2022/11/04 07:16:36;;;;;;;6.17;4.87;;;8.00;99.90;7.30;99691;;;;589085;243;24059;-81
2022/11/04 07:19:04;;;;;;;10.17;5.73;;;8.10;99.90;7.40;99687;;;;579911;244;24138;-81
2022/11/04 07:21:32;;;;;;;9.90;5.70;;;8.10;99.90;7.40;99686;;;;579893;244;24052;-81
2022/11/04 07:24:04;;;;;;;12.50;5.37;;;8.20;99.90;7.40;99687;;;;579862;244;24064;-83
2022/11/04 07:26:28;;;;;;;12.10;6.47;;;8.20;99.90;7.50;99688;;;;579627;244;24113;-82
2022/11/04 07:28:58;;;;;;;14.77;5.23;;;8.30;99.90;7.60;99688;;;;589112;243;24056;-82
2022/11/04 07:31:24;;;;;;;17.27;5.93;;;8.30;99.90;7.60;99684;;;;580388;244;24085;-82
2022/11/04 07:33:52;;;;;;;10.60;5.70;;;8.40;99.90;7.70;99681;;;;589380;244;24074;-81
2022/11/04 07:36:23;;;;;;;13.13;6.17;;;8.50;99.90;7.80;99681;;;;580508;244;24134;-82
2022/11/04 07:38:48;;;;;;;12.67;5.73;;;8.50;99.90;7.90;99682;;;;579634;244;24193;-81
2022/11/04 07:41:18;;;;;;;24.73;5.67;;;8.60;99.90;7.90;99685;;;;588107;243;24057;-82
2022/11/04 07:43:43;;;;;;;9.73;6.37;;;8.70;99.90;8.10;99677;;;;578908;244;24094;-81
2022/11/04 07:46:15;;;;;;;14.03;6.90;;;8.80;99.90;8.20;99680;;;;579189;244;24099;-81
2022/11/04 07:48:39;;;;;;;10.53;6.50;;;8.90;99.90;8.30;99689;;;;578618;244;24184;-80
2022/11/04 07:51:11;;;;;;;14.87;5.10;;;9.10;99.90;8.40;99687;;;;587789;244;24143;-80
2022/11/04 07:53:36;;;;;;;15.07;6.00;;;9.10;99.90;8.40;99697;;;;578733;244;24077;-81
2022/11/04 07:56:10;;;;;;;11.63;5.80;;;9.20;99.90;8.50;99683;;;;588016;244;24070;-81
2022/11/04 07:58:36;;;;;;;13.00;5.70;;;9.30;99.90;8.60;99688;;;;578748;244;24067;-82
2022/11/04 08:01:04;;;;;;;8.17;5.93;;;9.60;99.90;8.90;99687;;;;588026;244;24080;-81
2022/11/04 08:03:35;;;;;;;9.83;5.40;;;9.60;99.90;9.10;99682;;;;565860;249;24122;-80
2022/11/04 08:06:02;;;;;;;9.77;6.67;;;9.90;99.90;9.40;99678;;;;579080;243;24082;-80
2022/11/04 08:08:31;;;;;;;10.30;6.20;;;10.30;99.90;9.60;99689;;;;581727;244;24073;-81
2022/11/04 08:10:59;;;;;;;12.37;5.93;;;10.30;99.90;9.90;99695;;;;578839;244;24108;-81
2022/11/04 08:13:29;;;;;;;76.03;11.80;;;10.60;99.90;10.20;99688;;;;578725;244;24130;-81
2022/11/04 08:15:57;;;;;;;68.93;11.77;;;10.90;99.90;10.40;99689;;;;575084;244;24080;-81
2022/11/04 08:18:25;;;;;;;65.50;12.97;;;11.10;99.90;10.70;99696;;;;578949;244;24099;-80
2022/11/04 08:20:53;;;;;;;21.87;6.47;;;11.40;99.90;11.50;99696;;;;588037;244;24077;-82
2022/11/04 08:23:21;;;;;;;10.40;5.90;;;12.00;99.90;12.10;99690;;;;579584;243;24105;-81
2022/11/04 08:25:49;;;;;;;9.57;6.60;;;12.70;99.90;13.20;99690;;;;589341;243;24054;-81
2022/11/04 08:28:17;;;;;;;15.33;6.00;;;13.60;99.90;14.50;99698;;;;588811;243;24099;-80
2022/11/04 08:30:54;;;;;;;8.77;6.27;;;14.80;99.90;15.80;99693;;;;588774;243;24055;-81
2022/11/04 08:33:25;;;;;;;10.67;6.27;;;16.20;99.90;17.00;99694;;;;565859;249;24104;-81
2022/11/04 08:35:49;;;;;;;8.43;6.23;;;17.50;99.90;17.80;99690;;;;579637;244;24129;-81
2022/11/04 08:38:21;;;;;;;10.27;6.03;;;18.30;99.90;18.10;99685;;;;588377;243;24099;-81
2022/11/04 08:40:46;;;;;;;8.77;6.20;;;19.20;99.90;18.40;99687;;;;579302;244;24077;-81
2022/11/04 08:43:14;;;;;;;11.43;6.20;;;19.20;99.90;18.20;99691;;;;588945;243;24227;-81
2022/11/04 08:45:42;;;;;;;8.70;6.00;;;19.20;99.90;18.50;99677;;;;589214;243;24085;-81
2022/11/04 08:48:10;;;;;;;9.57;5.93;;;19.40;99.90;19.00;99681;;;;580087;244;24079;-82
2022/11/04 08:50:41;;;;;;;14.70;5.83;;;19.90;99.90;19.70;99686;;;;589155;243;24054;-81
2022/11/04 08:53:06;;;;;;;8.53;5.63;;;20.50;98.50;20.40;99689;;;;579640;244;24058;-81
2022/11/04 08:55:37;;;;;;;10.33;5.90;;;21.60;94.00;20.60;99683;;;;580118;244;23077;-81
2022/11/04 08:58:02;;;;;;;7.70;5.90;;;21.50;94.30;20.40;99688;;;;557533;254;24121;-81
2022/11/04 09:00:31;;;;;;;11.77;7.32;;;21.60;92.50;20.60;99680;;;;575452;244;35135;-81
2022/11/04 09:02:58;;;;;;;11.60;5.90;;;21.60;91.40;20.30;99681;;;;588964;244;24048;-82
2022/11/04 09:05:26;;;;;;;13.10;6.83;;;21.40;91.10;20.30;99682;;;;580320;244;23124;-80
2022/11/04 09:07:54;;;;;;;8.50;6.30;;;21.40;90.90;20.40;99680;;;;579687;244;24064;-80
2022/11/04 09:10:26;;;;;;;10.07;5.77;;;21.70;88.90;20.50;99689;;;;579926;244;24055;-81
2022/11/04 09:12:51;;;;;;;6.80;5.60;;;21.40;87.90;19.90;99681;;;;578944;244;24063;-82
2022/11/04 09:15:19;;;;;;;7.37;5.30;;;21.40;87.90;19.80;99682;;;;579430;244;23072;-79
2022/11/04 09:17:47;;;;;;;9.80;6.43;;;21.10;88.20;19.20;99683;;;;588414;244;24059;-81
2022/11/04 09:20:16;;;;;;;9.00;6.27;;;20.50;89.90;18.30;99684;;;;579468;244;24061;-81
2022/11/04 09:22:49;;;;;;;7.47;5.90;;;19.70;90.90;17.20;99692;;;;588271;244;24113;-81
2022/11/04 09:25:12;;;;;;;8.77;5.97;;;18.70;92.40;16.20;99687;;;;566284;249;24083;-80
2022/11/04 09:27:41;;;;;;;11.10;5.40;;;16.70;96.10;15.30;99684;;;;567131;249;24098;-81
2022/11/04 09:30:13;;;;;;;10.07;6.10;;;16.60;96.10;14.60;99679;;;;579932;244;24052;-81
2022/11/04 09:32:38;;;;;;;8.37;5.87;;;15.90;98.40;14.00;99685;;;;579726;244;24067;-80
2022/11/04 09:35:10;;;;;;;8.80;5.60;;;14.60;99.90;13.50;99667;;;;567974;249;24114;-80
2022/11/04 09:37:35;;;;;;;12.03;5.23;;;14.60;99.90;13.20;99669;;;;581105;244;24061;-80
2022/11/04 09:40:03;;;;;;;10.07;5.67;;;14.20;99.90;12.90;99677;;;;580988;244;24063;-81
2022/11/04 09:42:37;;;;;;;11.20;5.50;;;13.80;99.90;12.60;99687;;;;580953;244;24098;-82
2022/11/04 09:45:12;;;;;;;16.33;6.17;;;13.50;99.90;12.40;99679;;;;580332;244;24100;-82
2022/11/04 09:47:40;;;;;;;10.73;5.57;;;13.20;99.90;12.30;99682;;;;566980;248;24134;-81
2022/11/04 09:50:10;;;;;;;10.07;4.60;;;13.10;99.90;12.10;99671;;;;579841;244;24058;-80
2022/11/04 09:52:41;;;;;;;19.93;5.40;;;12.90;99.90;11.90;99668;;;;579790;244;24073;-80
2022/11/04 09:55:38;;;;;;;14.10;5.23;;;12.60;99.90;11.90;99672;;;;579370;244;25226;-81
2022/11/04 09:58:06;;;;;;;21.57;6.13;;;12.60;99.90;11.70;99671;;;;579206;244;24149;-82
2022/11/04 10:00:31;;;;;;;10.80;5.90;;;12.50;99.90;11.50;99666;;;;579945;244;24110;-82
2022/11/04 10:03:14;;;;;;;6.30;5.13;;;12.30;99.90;11.40;99659;;;;579420;244;24070;-81
2022/11/04 10:06:19;;;;;;;11.97;4.90;;;12.20;99.90;11.30;99657;;;;579749;244;24111;-81
2022/11/04 10:08:49;;;;;;;12.20;5.77;;;12.00;99.90;11.20;99661;;;;580199;244;24165;-80
2022/11/04 10:11:29;;;;;;;7.83;5.20;;;11.90;99.90;11.10;99656;;;;579099;244;24144;-81
2022/11/04 10:13:58;;;;;;;8.77;4.43;;;11.80;99.90;10.90;99660;;;;579809;244;24148;-81
2022/11/04 10:16:54;;;;;;;9.70;5.47;;;11.70;99.90;10.80;99650;;;;577193;244;24074;-80
2022/11/04 10:19:42;;;;;;;12.33;6.10;;;11.60;99.90;10.70;99648;;;;579749;244;24069;-82
2022/11/04 10:22:33;;;;;;;16.70;5.13;;;11.40;99.90;10.60;99660;;;;579899;244;24106;-80
2022/11/04 10:25:08;;;;;;;11.40;4.93;;;11.30;99.90;10.50;99654;;;;567317;249;24097;-80
2022/11/04 10:27:40;;;;;;;14.33;5.70;;;11.30;99.90;10.60;99659;;;;579242;244;25177;-80
2022/11/04 10:30:07;;;;;;;6.37;4.57;;;11.30;99.90;10.80;99652;;;;579396;244;24146;-81
2022/11/04 10:32:39;;;;;;;9.73;5.47;;;11.40;99.90;10.80;99661;;;;579300;244;24065;-80
2022/11/04 10:35:24;;;;;;;9.10;5.50;;;11.50;99.90;10.80;99661;;;;579670;244;24125;-80
2022/11/04 10:37:52;;;;;;;12.33;6.47;;;11.50;99.90;10.80;99663;;;;579531;244;24099;-81
2022/11/04 10:40:32;;;;;;;10.30;6.23;;;11.50;99.90;10.70;99654;;;;588105;244;24056;-80
2022/11/04 10:43:03;;;;;;;7.47;4.60;;;11.50;99.90;10.70;99644;;;;578748;244;24094;-80
2022/11/04 10:45:27;;;;;;;8.57;5.40;;;11.40;99.90;10.50;99639;;;;566394;248;24086;-80
2022/11/04 10:47:58;;;;;;;9.97;5.27;;;11.30;99.90;10.40;99643;;;;580254;243;25163;-80
2022/11/04 10:50:39;;;;;;;12.37;5.57;;;11.10;99.90;10.40;99651;;;;588811;244;24059;-78
2022/11/04 10:53:15;;;;;;;8.97;5.37;;;11.10;99.90;10.40;99651;;;;579238;244;24111;-81
2022/11/04 10:55:49;;;;;;;9.40;5.87;;;11.10;99.90;10.30;99649;;;;579658;244;24099;-81
2022/11/04 10:58:22;;;;;;;9.27;6.37;;;11.00;99.90;10.20;99642;;;;582170;244;24105;-79
2022/11/04 11:00:53;;;;;;;7.33;4.97;;;11.00;99.90;10.20;99645;;;;579606;244;25127;-80
2022/11/04 11:03:24;;;;;;;17.07;5.97;;;10.90;99.90;10.20;99646;;;;579516;244;24054;-81
2022/11/04 11:05:53;;;;;;;7.63;5.30;;;10.90;99.90;10.20;99647;;;;567140;249;24108;-81
2022/11/04 11:08:30;;;;;;;9.80;4.80;;;10.90;99.90;10.20;99650;;;;577813;244;24119;-80
2022/11/04 11:10:59;;;;;;;9.03;5.13;;;10.90;99.90;10.10;99642;;;;579563;244;24131;-80
2022/11/04 11:13:28;;;;;;;11.77;5.60;;;10.90;99.90;10.20;99641;;;;579298;243;25163;-80
2022/11/04 11:16:18;;;;;;;10.03;5.17;;;10.90;99.90;10.30;99643;;;;565838;249;24181;-80
2022/11/04 11:18:48;;;;;;;10.70;5.30;;;11.00;99.90;10.40;99647;;;;578956;244;24097;-79
2022/11/04 11:21:20;;;;;;;15.17;6.73;;;11.10;99.90;10.40;99638;;;;565197;249;24134;-80
2022/11/04 11:23:47;;;;;;;7.10;5.53;;;11.10;99.90;10.50;99630;;;;578841;244;24075;-81
2022/11/04 11:26:16;;;;;;;11.67;6.07;;;11.20;99.90;10.50;99628;;;;578704;244;24125;-81
2022/11/04 11:28:55;;;;;;;9.70;6.40;;;11.20;99.90;10.50;99617;;;;578716;244;24111;-80
2022/11/04 11:31:25;;;;;;;7.50;5.40;;;11.20;99.90;10.60;99617;;;;574399;244;25149;-81
2022/11/04 11:33:56;;;;;;;9.10;5.83;;;11.30;99.90;10.70;99609;;;;588402;244;24073;-79
2022/11/04 11:36:25;;;;;;;9.20;6.20;;;11.40;99.90;10.70;99604;;;;579705;244;24122;-81
2022/11/04 11:39:02;;;;;;;8.63;5.83;;;11.40;99.90;10.70;99599;;;;574615;249;24160;-81
2022/11/04 11:41:33;;;;;;;9.97;3.97;;;11.40;99.90;10.70;99596;;;;578791;244;24065;-80
2022/11/04 11:44:05;;;;;;;6.83;5.90;;;11.40;99.90;10.70;99592;;;;579857;244;24087;-81
2022/11/04 11:46:30;;;;;;;12.00;5.23;;;11.40;99.90;10.70;99592;;;;565938;249;24103;-80
2022/11/04 11:49:00;;;;;;;9.27;6.07;;;11.40;99.90;10.70;99584;;;;579761;244;24075;-80
2022/11/04 11:51:27;;;;;;;15.63;5.27;;;11.40;99.90;10.70;99586;;;;567002;249;24151;-79
2022/11/04 11:54:21;;;;;;;10.83;5.50;;;11.40;99.90;10.70;99586;;;;566530;249;24120;-80
2022/11/04 11:56:47;;;;;;;8.83;5.87;;;11.40;99.90;10.70;99580;;;;567233;249;24093;-81
2022/11/04 11:59:36;;;;;;;12.67;5.93;;;11.40;99.90;10.80;99585;;;;578720;243;24071;-80
2022/11/04 12:02:10;;;;;;;12.00;6.93;;;11.50;99.90;10.80;99585;;;;581420;243;24062;-82
2022/11/04 12:04:40;;;;;;;9.30;6.67;;;11.50;99.90;10.80;99582;;;;581224;244;24077;-82
2022/11/04 12:07:40;;;;;;;17.30;8.27;;;11.60;99.90;10.90;99576;;;;585087;243;35249;-81
2022/11/04 12:10:32;;;;;;;12.90;6.13;;;11.60;99.90;11.00;99578;;;;580796;244;24099;-81
2022/11/04 12:13:29;;;;;;;17.97;7.07;;;11.70;99.90;11.00;99586;;;;580391;244;24105;-80